ESSBESNZ

Guest
Details From ESSB - BROMMA
To ESNZ - Are Ostersund
Flight Number -
Tags generated
Created
Modified
Stats Distance 259 nm / 480 km
Max Altitude 27,500 ft / 8,382 m
Waypoints 4
Social Downloads 0
Likes 0
Share VATSIM

Download

Looking for another format? Having issues loading an existing format? Contact us
Advertisement - Login to hide

Notes

Basic altitude profile: - Ascent Rate: 2500ft/min - Ascent Speed: 250kts - Cruise Altitude: 35000ft - Cruise Speed: 420kts - Descent Rate: 1500ft/min - Descent Speed: 250kts Options: - Use NATs: yes - Use PACOTS: yes - Use low airways: yes - Use high airways: yes

Route

ESSB DEGAL Y430 OSLAV ESNZ

ID Type Via Altitude Latitude Longitude Leg Dist Tot Dist Heading (true) Name
O ESSB APT - 0 ft / 0 m 59.35439˚ 17.94160˚ - 0 nm - BROMMA
DEGAL FIX - 27,500 ft / 8,382 m 60.63883˚ 17.95667˚ 77 nm 77 nm 0° / 0° -
OSLAV FIX Y430 (AWY-LO) 9,500 ft / 2,896 m 62.72636˚ 15.18331˚ 148 nm 225 nm 329° / 327° -
O ESNZ APT - 0 ft / 0 m 63.19412˚ 14.50200˚ 33 nm 258 nm 327° / 326° Are Ostersund

Altitude Profile

Advertisement - Login to hide

Weather


0- 5 10 15 20 25 30 35+ Temperature / ° C

Clouds and Precipitation
Forecast for 2017-12-13 18:00 UTC. Updated 2 hours ago

Ground ~20,000 ft ~40,000 ft Winds

ESSB

Details ICAO ESSB (BMA)
Name BROMMA
Region Sweden
Timezone Europe/Stockholm (UTC+1.0)
Stats Elevation 47 ft / 14 m (AMSL)
Location 59.354389° 17.941604°
Runways 1
Magnetic Variation 6.049° E

METAR

ESSB 131420Z 20010KT 9999 BKN010 02/00 Q0995 R30/29//67

Decode

TAF

Not found

Departure Runways

ID Width Length Bearing (true) Bearing (mag) Surface Threshold Offset Overrun Length
12 148 ft / 45 m 6,201 ft / 1,890 m 125.06° 119.01° Asphalt 381 ft / 116 m 0 ft / 0 m
30 148 ft / 45 m 6,201 ft / 1,890 m 305.09° 299.04° Asphalt 361 ft / 110 m 0 ft / 0 m

ESNZ

Details ICAO ESNZ (OSD)
Name Are Ostersund
Region Sweden
Timezone Europe/Stockholm (UTC+1.0)
Stats Elevation 1,231 ft / 375 m (AMSL)
Location 63.194125° 14.502004°
Runways 1
Magnetic Variation 5.170° E

METAR

ESNZ 131420Z 19009KT 9999 FEW040 M06/M08 Q0982

Decode

TAF

Not found

Destination Runways

ID Width Length Bearing (true) Bearing (mag) Surface Threshold Offset Overrun Length
12 148 ft / 45 m 8,174 ft / 2,491 m 114.70° 109.53° Asphalt 0 ft / 0 m 0 ft / 0 m
30 148 ft / 45 m 8,174 ft / 2,491 m 294.74° 289.57° Asphalt 0 ft / 0 m 180 ft / 55 m

Approach Navaids

Runway Type Ident Frequency Range Bearing (true) Bearing (mag) Slope Elevation
12 Localiser PC 109.50 MHz 18 nm / 33 km 114.73° 109.57° - 1,231 ft / 375 m (AMSL)
12 Glidescope PC 109.50 MHz 10 nm / 19 km 114.72° 109.55° 3.00° 1,231 ft / 375 m (AMSL)

Popular Alternatives